Time;durP1;ratioP1;P1;durP2;ratioP2;P2;SDS_P1;SDS_P2;PMS_P1;PMS_P2;Temp;Humidity;BMP_temperature;BMP_pressure;BME280_temperature;BME280_humidity;BME280_pressure;Samples;Min_cycle;Max_cycle;Signal;HPM_P1;HPM_P2
2021/10/06 00:01:48;;;;;;;0.10;0.10;;;18.20;78.50;;;;;;5001035;28;20365;-83
2021/10/06 00:04:16;;;;;;;0.20;0.20;;;18.20;78.30;;;;;;5000894;28;20239;-83
2021/10/06 00:06:42;;;;;;;0.10;0.10;;;18.20;78.10;;;;;;5001179;28;20208;-83
2021/10/06 00:09:09;;;;;;;0.00;0.00;;;18.20;78.00;;;;;;5000106;28;20664;-82
2021/10/06 00:11:39;;;;;;;0.10;0.10;;;18.30;77.90;;;;;;5000378;28;20212;-82
2021/10/06 00:14:08;;;;;;;0.30;0.30;;;18.30;77.60;;;;;;5001448;28;20660;-83
2021/10/06 00:16:36;;;;;;;0.10;0.10;;;18.40;77.50;;;;;;5000524;28;20242;-83
2021/10/06 00:19:04;;;;;;;0.10;0.10;;;18.40;77.10;;;;;;5000266;28;20220;-83
2021/10/06 00:21:32;;;;;;;0.10;0.10;;;18.40;77.20;;;;;;4999837;28;20586;-83
2021/10/06 00:24:02;;;;;;;0.10;0.10;;;18.40;77.50;;;;;;5000749;28;20216;-83
2021/10/06 00:26:29;;;;;;;0.10;0.10;;;18.40;77.50;;;;;;4999959;28;20210;-84
2021/10/06 00:28:56;;;;;;;0.10;0.10;;;18.40;77.40;;;;;;5000854;28;20305;-83
2021/10/06 00:31:23;;;;;;;0.20;0.20;;;18.40;77.70;;;;;;5001235;28;20208;-83
2021/10/06 00:33:50;;;;;;;0.10;0.10;;;18.40;78.00;;;;;;5002038;28;20227;-83
2021/10/06 00:36:17;;;;;;;0.23;0.23;;;18.40;78.20;;;;;;5000623;28;20212;-83
2021/10/06 00:38:44;;;;;;;0.00;0.00;;;18.40;78.30;;;;;;5001272;28;20224;-83
2021/10/06 00:41:12;;;;;;;0.20;0.20;;;18.40;78.40;;;;;;4999990;28;20232;-83
2021/10/06 00:43:39;;;;;;;0.20;0.20;;;18.40;78.30;;;;;;5000304;28;20244;-83
2021/10/06 00:46:06;;;;;;;0.00;0.00;;;18.50;78.30;;;;;;5000730;28;20215;-83
2021/10/06 00:48:33;;;;;;;0.00;0.00;;;18.50;78.30;;;;;;5001098;28;20236;-83
2021/10/06 00:51:00;;;;;;;0.30;0.30;;;18.50;78.30;;;;;;5001106;28;20211;-82
2021/10/06 00:53:28;;;;;;;0.10;0.10;;;18.50;78.40;;;;;;4997844;28;20205;-83
2021/10/06 00:55:55;;;;;;;0.00;0.00;;;18.50;78.50;;;;;;4981956;28;20216;-83
2021/10/06 00:58:23;;;;;;;0.10;0.10;;;18.50;78.60;;;;;;4982468;28;20556;-83
2021/10/06 01:00:50;;;;;;;0.10;0.10;;;18.50;78.70;;;;;;4981360;28;20706;-83
2021/10/06 01:03:21;;;;;;;0.20;0.20;;;18.50;78.80;;;;;;4982539;28;20664;-83
2021/10/06 01:05:49;;;;;;;0.00;0.00;;;18.50;78.80;;;;;;5003005;28;20583;-83
2021/10/06 01:08:18;;;;;;;0.10;0.10;;;18.60;79.00;;;;;;5003327;28;20211;-83
2021/10/06 01:10:46;;;;;;;0.10;0.10;;;18.50;79.20;;;;;;5001379;28;20216;-83
2021/10/06 01:13:16;;;;;;;0.10;0.10;;;18.50;79.30;;;;;;5001402;28;20212;-83
2021/10/06 01:15:44;;;;;;;0.10;0.10;;;18.50;79.30;;;;;;5002654;28;20231;-83
2021/10/06 01:18:11;;;;;;;0.10;0.10;;;18.50;79.40;;;;;;5002146;28;20196;-84
2021/10/06 01:20:39;;;;;;;0.10;0.10;;;18.50;79.30;;;;;;5003948;28;20228;-82
2021/10/06 01:23:06;;;;;;;0.10;0.10;;;18.50;79.10;;;;;;5000840;28;20852;-83
2021/10/06 01:25:34;;;;;;;0.20;0.20;;;18.50;79.00;;;;;;5000676;28;20651;-83
2021/10/06 01:28:02;;;;;;;1.47;0.43;;;18.50;78.90;;;;;;4999685;28;20204;-84
2021/10/06 01:30:29;;;;;;;0.00;0.00;;;18.50;78.60;;;;;;4999618;28;20587;-83
2021/10/06 01:32:56;;;;;;;7.83;0.83;;;18.50;78.60;;;;;;4999210;28;20283;-84
2021/10/06 01:35:24;;;;;;;0.10;0.10;;;18.50;78.40;;;;;;4999782;28;20213;-83
2021/10/06 01:37:51;;;;;;;0.10;0.10;;;18.50;78.30;;;;;;4999934;28;20205;-83
2021/10/06 01:40:22;;;;;;;0.20;0.20;;;18.50;78.20;;;;;;5000046;28;20516;-83
2021/10/06 01:42:52;;;;;;;0.00;0.00;;;18.50;78.10;;;;;;4999984;28;20216;-83
2021/10/06 01:45:26;;;;;;;0.03;0.03;;;18.50;78.10;;;;;;5000136;28;20208;-84
2021/10/06 01:47:54;;;;;;;0.00;0.00;;;18.40;77.90;;;;;;5001122;28;20200;-84
2021/10/06 01:50:25;;;;;;;0.40;0.40;;;18.40;77.70;;;;;;5005253;28;20239;-83
2021/10/06 01:52:54;;;;;;;0.10;0.10;;;18.40;77.60;;;;;;5001394;28;20676;-83
2021/10/06 01:55:31;;;;;;;0.10;0.10;;;18.40;77.60;;;;;;4999699;28;20227;-84
2021/10/06 01:58:01;;;;;;;0.00;0.00;;;18.40;78.10;;;;;;4999371;28;20247;-84
2021/10/06 02:00:29;;;;;;;0.10;0.10;;;18.50;77.50;;;;;;5015082;28;20216;-84
2021/10/06 02:02:56;;;;;;;0.00;0.00;;;18.40;77.40;;;;;;5000027;28;20237;-83
2021/10/06 02:05:25;;;;;;;0.10;0.10;;;18.50;77.30;;;;;;4999699;28;20303;-84
2021/10/06 02:07:52;;;;;;;0.10;0.10;;;18.50;77.20;;;;;;4998401;28;20221;-82
2021/10/06 02:10:20;;;;;;;0.33;0.33;;;18.40;77.10;;;;;;4998769;28;20216;-83
2021/10/06 02:12:47;;;;;;;0.13;0.13;;;18.40;77.10;;;;;;4998768;28;20219;-82
2021/10/06 02:15:14;;;;;;;0.53;0.53;;;18.40;77.00;;;;;;5014223;28;20308;-83
2021/10/06 02:17:41;;;;;;;0.00;0.00;;;18.40;77.00;;;;;;4998748;28;20212;-83
2021/10/06 02:20:09;;;;;;;0.10;0.10;;;18.40;77.00;;;;;;4997776;28;20212;-83
2021/10/06 02:22:37;;;;;;;0.33;0.27;;;18.40;77.00;;;;;;4998706;28;20236;-83
2021/10/06 02:25:05;;;;;;;0.10;0.10;;;18.30;77.00;;;;;;4998447;28;20216;-83
2021/10/06 02:27:32;;;;;;;1.17;1.07;;;18.30;77.10;;;;;;4998125;28;20224;-83
2021/10/06 02:29:59;;;;;;;0.10;0.10;;;18.30;77.20;;;;;;4998863;28;20209;-82
2021/10/06 02:32:26;;;;;;;0.00;0.00;;;18.20;77.20;;;;;;4998076;28;20621;-83
2021/10/06 02:34:53;;;;;;;0.20;0.20;;;18.20;77.20;;;;;;4998260;28;20640;-82
2021/10/06 02:37:20;;;;;;;0.10;0.10;;;18.20;77.20;;;;;;4998996;28;20217;-83
2021/10/06 02:39:47;;;;;;;1.47;0.93;;;18.20;77.20;;;;;;4998268;28;20213;-83
2021/10/06 02:42:14;;;;;;;0.00;0.00;;;18.20;77.20;;;;;;4998302;28;20228;-83
2021/10/06 02:44:41;;;;;;;0.10;0.10;;;18.20;77.30;;;;;;4998907;28;20204;-83
2021/10/06 02:47:08;;;;;;;0.00;0.00;;;18.20;77.30;;;;;;4998040;28;20212;-83
2021/10/06 02:49:36;;;;;;;0.10;0.10;;;18.20;77.40;;;;;;4997710;28;20549;-84
2021/10/06 02:52:04;;;;;;;0.10;0.10;;;18.10;77.40;;;;;;4998443;28;20238;-83
2021/10/06 02:54:31;;;;;;;0.10;0.10;;;18.00;77.60;;;;;;4997884;28;20208;-84
2021/10/06 02:57:01;;;;;;;0.10;0.10;;;18.00;77.80;;;;;;4997759;28;20275;-83
2021/10/06 02:59:28;;;;;;;0.00;0.00;;;17.90;77.90;;;;;;4998892;28;20212;-83
2021/10/06 03:01:56;;;;;;;0.10;0.10;;;17.80;78.20;;;;;;4998919;28;20684;-83
2021/10/06 03:04:24;;;;;;;0.10;0.10;;;17.80;78.40;;;;;;4998355;28;20532;-84
2021/10/06 03:06:51;;;;;;;1.13;0.73;;;17.80;78.50;;;;;;4999807;28;20215;-84
2021/10/06 03:09:19;;;;;;;0.00;0.00;;;17.70;78.50;;;;;;4999787;28;20238;-84
2021/10/06 03:11:46;;;;;;;0.10;0.10;;;17.70;78.50;;;;;;5001797;28;20224;-84
2021/10/06 03:14:13;;;;;;;0.30;0.30;;;17.70;78.60;;;;;;5000106;28;20208;-84
2021/10/06 03:16:40;;;;;;;0.10;0.10;;;17.70;78.70;;;;;;5000290;28;20207;-84
2021/10/06 03:19:07;;;;;;;0.00;0.00;;;17.60;78.70;;;;;;5002338;28;20264;-84
2021/10/06 03:21:34;;;;;;;0.10;0.10;;;17.60;78.80;;;;;;5000468;28;20243;-84
2021/10/06 03:24:02;;;;;;;0.10;0.10;;;17.60;79.00;;;;;;5001013;28;20507;-84
2021/10/06 03:26:29;;;;;;;0.10;0.10;;;17.50;78.90;;;;;;5001247;28;20223;-84
2021/10/06 03:28:57;;;;;;;0.10;0.10;;;17.50;79.10;;;;;;5000569;28;20219;-84
2021/10/06 03:31:24;;;;;;;1.73;0.70;;;17.50;79.20;;;;;;4999924;28;20212;-84
2021/10/06 03:33:51;;;;;;;0.00;0.00;;;17.40;79.30;;;;;;5000672;28;20212;-84
2021/10/06 03:36:18;;;;;;;0.40;0.40;;;17.40;79.50;;;;;;4999688;28;20212;-84
2021/10/06 03:38:46;;;;;;;0.10;0.10;;;17.30;79.60;;;;;;5000695;28;20216;-84
2021/10/06 03:41:12;;;;;;;0.00;0.00;;;17.30;79.70;;;;;;4999174;28;20216;-83
2021/10/06 03:43:40;;;;;;;0.10;0.10;;;17.30;79.80;;;;;;4997757;28;20212;-84
2021/10/06 03:46:07;;;;;;;0.00;0.00;;;17.30;80.00;;;;;;4997321;28;20212;-84
2021/10/06 03:48:34;;;;;;;0.10;0.10;;;17.20;80.10;;;;;;4997181;28;20216;-83
2021/10/06 03:51:01;;;;;;;0.40;0.40;;;17.20;80.40;;;;;;4996733;28;20649;-84
2021/10/06 03:53:28;;;;;;;0.10;0.10;;;17.20;80.60;;;;;;5001919;28;20212;-84
2021/10/06 03:55:55;;;;;;;0.10;0.10;;;17.20;80.90;;;;;;5000368;28;20212;-84
2021/10/06 03:58:22;;;;;;;0.10;0.10;;;17.20;81.00;;;;;;5001568;28;20240;-84
2021/10/06 04:00:49;;;;;;;0.13;0.13;;;17.10;81.00;;;;;;5001699;28;20220;-84
2021/10/06 04:03:16;;;;;;;0.00;0.00;;;17.00;81.20;;;;;;5001031;28;20295;-83
2021/10/06 04:05:43;;;;;;;0.60;0.60;;;17.00;81.40;;;;;;5001184;28;20675;-83
2021/10/06 04:08:11;;;;;;;0.20;0.20;;;17.00;81.60;;;;;;5001453;28;20220;-84
2021/10/06 04:10:38;;;;;;;0.20;0.20;;;17.00;81.80;;;;;;5000434;28;20220;-83
2021/10/06 04:13:05;;;;;;;0.10;0.10;;;16.90;81.80;;;;;;5001371;28;20652;-83
2021/10/06 04:15:33;;;;;;;0.10;0.10;;;17.00;81.90;;;;;;5001330;28;20687;-83
2021/10/06 04:18:01;;;;;;;0.10;0.10;;;16.90;81.90;;;;;;5000666;28;20220;-83
2021/10/06 04:20:28;;;;;;;0.10;0.10;;;17.00;82.00;;;;;;5001930;28;20212;-84
2021/10/06 04:22:55;;;;;;;0.00;0.00;;;17.00;82.00;;;;;;5004793;28;20703;-84
2021/10/06 04:25:22;;;;;;;0.00;0.00;;;17.00;82.00;;;;;;5005975;28;20205;-83
2021/10/06 04:27:49;;;;;;;0.10;0.10;;;17.00;82.10;;;;;;5000251;28;20209;-84
2021/10/06 04:30:16;;;;;;;0.10;0.10;;;17.00;82.20;;;;;;5001037;28;20204;-83
2021/10/06 04:32:44;;;;;;;0.00;0.00;;;16.90;82.50;;;;;;5001879;28;20586;-83
2021/10/06 04:35:11;;;;;;;0.10;0.10;;;16.90;82.90;;;;;;5001359;28;20209;-84
2021/10/06 04:37:38;;;;;;;0.00;0.00;;;16.80;83.00;;;;;;5000445;28;20633;-83
2021/10/06 04:40:07;;;;;;;0.00;0.00;;;16.80;83.10;;;;;;5000553;28;20233;-83
2021/10/06 04:42:34;;;;;;;0.10;0.10;;;16.80;83.40;;;;;;5000152;28;20674;-83
2021/10/06 04:45:02;;;;;;;0.13;0.13;;;16.80;83.60;;;;;;5000464;28;20224;-83
2021/10/06 04:47:29;;;;;;;0.10;0.10;;;16.80;83.80;;;;;;4999712;28;20227;-83
2021/10/06 04:49:56;;;;;;;0.10;0.10;;;16.90;83.90;;;;;;4998893;28;20610;-83
2021/10/06 04:52:24;;;;;;;0.10;0.10;;;16.90;84.00;;;;;;5000101;28;20224;-84
2021/10/06 04:54:52;;;;;;;1.03;0.70;;;16.90;83.90;;;;;;5000121;28;20239;-83
2021/10/06 04:57:20;;;;;;;0.40;0.40;;;17.00;83.90;;;;;;4999526;28;20247;-83
2021/10/06 04:59:48;;;;;;;0.10;0.10;;;17.00;83.80;;;;;;4998000;28;20201;-83
2021/10/06 05:02:15;;;;;;;0.10;0.10;;;17.10;83.80;;;;;;5001359;28;20233;-83
2021/10/06 05:04:42;;;;;;;0.10;0.10;;;17.10;83.70;;;;;;5000400;28;20220;-83
2021/10/06 05:07:09;;;;;;;0.00;0.00;;;17.20;83.70;;;;;;5000656;28;20275;-84
2021/10/06 05:09:36;;;;;;;0.10;0.10;;;17.20;84.40;;;;;;4999682;28;20290;-83
2021/10/06 05:12:04;;;;;;;0.10;0.10;;;17.20;83.70;;;;;;4999246;28;20220;-83
2021/10/06 05:14:31;;;;;;;0.10;0.10;;;17.20;83.70;;;;;;5000155;28;20216;-83
2021/10/06 05:16:58;;;;;;;0.10;0.10;;;17.30;83.80;;;;;;4999141;28;20291;-83
2021/10/06 05:19:25;;;;;;;0.10;0.10;;;17.30;83.80;;;;;;4999449;28;20295;-83
2021/10/06 05:21:52;;;;;;;0.00;0.00;;;17.30;83.70;;;;;;5000720;28;20310;-82
2021/10/06 05:24:19;;;;;;;0.10;0.10;;;17.30;83.70;;;;;;4998858;28;20572;-83
2021/10/06 05:26:47;;;;;;;0.10;0.10;;;17.40;83.90;;;;;;5000530;28;20217;-83
2021/10/06 05:29:21;;;;;;;4.17;0.93;;;17.40;83.80;;;;;;5019109;28;20506;-82
2021/10/06 05:31:48;;;;;;;0.10;0.10;;;17.40;83.80;;;;;;5018296;28;20207;-83
2021/10/06 05:34:16;;;;;;;0.83;0.83;;;17.40;83.80;;;;;;5020622;28;20207;-83
2021/10/06 05:36:46;;;;;;;0.10;0.10;;;17.40;83.70;;;;;;5020760;28;20219;-83
2021/10/06 05:39:13;;;;;;;0.20;0.20;;;17.50;83.80;;;;;;5021149;28;20286;-83
2021/10/06 05:41:40;;;;;;;0.10;0.10;;;17.50;83.70;;;;;;5021639;28;20208;-84
2021/10/06 05:44:07;;;;;;;0.00;0.00;;;17.50;83.60;;;;;;5022529;28;20249;-83
2021/10/06 05:46:35;;;;;;;0.10;0.10;;;17.60;83.50;;;;;;5020799;28;20216;-82
2021/10/06 05:49:02;;;;;;;0.20;0.20;;;17.60;83.40;;;;;;5020604;28;20235;-83
2021/10/06 05:51:31;;;;;;;0.00;0.00;;;17.60;83.40;;;;;;5005308;28;20205;-83
2021/10/06 05:53:58;;;;;;;0.20;0.20;;;17.60;83.40;;;;;;4999704;28;20343;-83
2021/10/06 05:56:25;;;;;;;0.07;0.07;;;17.70;83.40;;;;;;4998356;28;20212;-83
2021/10/06 05:58:52;;;;;;;0.10;0.10;;;17.70;83.30;;;;;;5005358;28;20244;-83
2021/10/06 06:01:19;;;;;;;0.30;0.30;;;17.70;83.20;;;;;;5020139;28;20230;-82
2021/10/06 06:03:47;;;;;;;0.13;0.13;;;17.80;83.10;;;;;;5034145;28;20293;-83
2021/10/06 06:06:14;;;;;;;0.10;0.10;;;17.80;83.00;;;;;;5021657;28;20216;-83
2021/10/06 06:08:41;;;;;;;0.10;0.10;;;17.80;83.00;;;;;;5019507;28;20214;-83
2021/10/06 06:11:11;;;;;;;0.10;0.10;;;17.80;83.00;;;;;;5035074;28;20212;-83
2021/10/06 06:13:38;;;;;;;0.10;0.10;;;17.80;83.00;;;;;;5035101;28;20243;-83
2021/10/06 06:16:05;;;;;;;0.10;0.10;;;17.90;83.10;;;;;;5019200;28;20219;-82
2021/10/06 06:18:35;;;;;;;0.10;0.10;;;17.90;83.00;;;;;;5033254;28;20216;-83
2021/10/06 06:21:02;;;;;;;0.00;0.00;;;17.90;83.00;;;;;;5034744;28;20212;-82
2021/10/06 06:23:31;;;;;;;5.30;0.77;;;17.90;82.90;;;;;;5034931;28;20227;-83
2021/10/06 06:25:59;;;;;;;0.00;0.00;;;17.90;82.80;;;;;;5021037;28;20208;-82
2021/10/06 06:28:26;;;;;;;0.10;0.10;;;17.90;82.80;;;;;;5019590;28;20227;-83
2021/10/06 06:30:54;;;;;;;0.00;0.00;;;18.00;82.80;;;;;;5034836;28;20238;-83
2021/10/06 06:33:21;;;;;;;0.10;0.10;;;18.00;82.70;;;;;;5035058;28;20277;-83
2021/10/06 06:35:48;;;;;;;0.10;0.10;;;18.10;82.70;;;;;;5035385;28;20211;-83
2021/10/06 06:38:15;;;;;;;0.10;0.10;;;18.10;82.60;;;;;;5034256;28;20219;-83
2021/10/06 06:40:42;;;;;;;0.10;0.10;;;18.10;82.60;;;;;;5018480;28;20226;-83
2021/10/06 06:43:14;;;;;;;0.10;0.10;;;18.10;82.50;;;;;;5020153;28;20246;-83
2021/10/06 06:45:41;;;;;;;0.00;0.00;;;18.20;82.40;;;;;;5035027;28;20636;-84
2021/10/06 06:48:14;;;;;;;0.00;0.00;;;18.20;82.50;;;;;;5034781;28;20587;-83
2021/10/06 06:50:45;;;;;;;0.00;0.00;;;18.20;82.50;;;;;;5034482;28;20592;-83
2021/10/06 06:53:12;;;;;;;0.00;0.00;;;18.30;82.50;;;;;;5019133;28;20231;-83
2021/10/06 06:55:40;;;;;;;0.20;0.20;;;18.50;82.40;;;;;;5036417;28;20216;-83
2021/10/06 06:58:06;;;;;;;0.40;0.40;;;18.60;82.30;;;;;;5010399;28;20268;-83
2021/10/06 07:00:34;;;;;;;0.20;0.20;;;18.80;82.10;;;;;;4978484;28;20229;-83
2021/10/06 07:03:01;;;;;;;0.30;0.30;;;18.90;81.80;;;;;;4978271;28;20256;-83
2021/10/06 07:05:29;;;;;;;0.20;0.20;;;19.00;81.60;;;;;;4978062;28;20209;-83
2021/10/06 07:07:56;;;;;;;0.40;0.40;;;19.00;81.40;;;;;;4979167;28;20235;-83
2021/10/06 07:10:23;;;;;;;0.40;0.40;;;19.00;81.20;;;;;;4978354;28;20213;-83
2021/10/06 07:12:50;;;;;;;0.10;0.10;;;19.10;81.20;;;;;;4978693;28;20283;-83
2021/10/06 07:15:18;;;;;;;0.10;0.10;;;19.00;81.10;;;;;;4979069;28;20559;-83
2021/10/06 07:17:44;;;;;;;0.00;0.00;;;19.10;81.20;;;;;;4979011;28;20209;-83
2021/10/06 07:20:12;;;;;;;0.20;0.20;;;19.00;81.00;;;;;;4978046;28;20209;-83
2021/10/06 07:22:39;;;;;;;0.10;0.10;;;19.10;81.10;;;;;;4978296;28;20579;-83
2021/10/06 07:25:06;;;;;;;0.30;0.30;;;19.20;81.10;;;;;;4979219;28;20212;-83
2021/10/06 07:27:34;;;;;;;0.30;0.30;;;19.40;80.80;;;;;;4978928;28;20209;-82
2021/10/06 07:30:02;;;;;;;0.00;0.00;;;19.70;80.30;;;;;;4980012;28;20221;-83
2021/10/06 07:32:29;;;;;;;0.37;0.37;;;19.90;79.60;;;;;;4982590;28;20217;-83
2021/10/06 07:34:56;;;;;;;0.10;0.10;;;20.00;79.00;;;;;;4983082;28;20224;-83
2021/10/06 07:37:24;;;;;;;0.00;0.00;;;20.10;78.70;;;;;;4981988;28;20224;-84
2021/10/06 07:39:51;;;;;;;0.10;0.10;;;20.10;78.30;;;;;;4982191;28;20213;-83
2021/10/06 07:42:19;;;;;;;0.13;0.13;;;20.10;78.00;;;;;;4981895;28;20536;-83
2021/10/06 07:44:46;;;;;;;0.00;0.00;;;20.10;77.90;;;;;;4982670;28;20292;-83
2021/10/06 07:47:14;;;;;;;0.10;0.10;;;20.20;77.80;;;;;;4981946;28;20209;-83
2021/10/06 07:49:42;;;;;;;0.10;0.10;;;20.30;77.70;;;;;;4982750;28;20209;-82
2021/10/06 07:52:13;;;;;;;0.10;0.10;;;20.60;77.30;;;;;;4983339;28;20217;-83
2021/10/06 07:54:41;;;;;;;0.00;0.00;;;20.90;75.60;;;;;;4982621;28;20197;-83
2021/10/06 07:57:08;;;;;;;0.00;0.00;;;21.00;75.10;;;;;;4981614;28;20248;-83
2021/10/06 07:59:35;;;;;;;0.10;0.10;;;21.10;74.80;;;;;;4983769;28;20201;-83
2021/10/06 08:02:03;;;;;;;0.10;0.10;;;21.30;73.80;;;;;;4983266;28;20209;-83
2021/10/06 08:04:30;;;;;;;1.40;0.93;;;21.20;73.30;;;;;;4982215;28;20239;-83
2021/10/06 08:06:57;;;;;;;0.00;0.00;;;21.20;73.60;;;;;;4982991;28;20212;-84
2021/10/06 08:09:24;;;;;;;0.20;0.20;;;21.30;73.50;;;;;;4982169;28;20220;-82
2021/10/06 08:11:52;;;;;;;0.20;0.20;;;21.30;73.20;;;;;;4981835;28;20216;-83
2021/10/06 08:14:19;;;;;;;0.13;0.13;;;21.30;73.30;;;;;;4982090;28;20217;-83
2021/10/06 08:16:46;;;;;;;0.10;0.10;;;21.40;73.20;;;;;;4981842;28;20228;-84
2021/10/06 08:19:13;;;;;;;0.20;0.20;;;21.30;72.60;;;;;;4981190;28;20239;-83
2021/10/06 08:21:41;;;;;;;0.30;0.30;;;21.20;72.40;;;;;;4981004;28;20228;-83
2021/10/06 08:24:08;;;;;;;0.37;0.37;;;21.10;72.30;;;;;;4980889;28;20687;-83
2021/10/06 08:26:35;;;;;;;0.10;0.10;;;21.10;72.40;;;;;;4980061;28;20205;-84
2021/10/06 08:29:02;;;;;;;0.10;0.10;;;21.20;72.10;;;;;;4980020;28;20221;-84
2021/10/06 08:31:29;;;;;;;0.10;0.10;;;21.50;71.80;;;;;;4981765;28;20220;-84
2021/10/06 08:33:57;;;;;;;0.53;0.53;;;21.90;70.90;;;;;;4982155;28;20228;-84
2021/10/06 08:36:24;;;;;;;0.00;0.00;;;22.40;69.50;;;;;;4981957;28;20279;-84
2021/10/06 08:38:51;;;;;;;0.40;0.40;;;22.80;69.10;;;;;;4984263;28;20235;-84
2021/10/06 08:41:19;;;;;;;1.40;0.40;;;23.20;68.20;;;;;;4986521;28;20221;-85
2021/10/06 08:43:46;;;;;;;0.10;0.10;;;23.50;66.60;;;;;;5011912;28;20265;-84
2021/10/06 08:46:13;;;;;;;0.10;0.10;;;23.60;64.90;;;;;;5021401;28;20208;-85
2021/10/06 08:48:40;;;;;;;0.10;0.10;;;23.80;63.80;;;;;;5021466;28;20211;-85
2021/10/06 08:51:07;;;;;;;0.10;0.10;;;23.80;63.90;;;;;;5020270;28;20208;-84
2021/10/06 08:53:47;;;;;;;0.10;0.10;;;23.60;64.20;;;;;;5020842;28;20219;-84
2021/10/06 08:56:15;;;;;;;0.10;0.10;;;23.40;64.10;;;;;;5022288;28;20227;-85
2021/10/06 08:58:42;;;;;;;0.10;0.10;;;23.20;64.80;;;;;;5023650;28;20244;-86
2021/10/06 09:01:29;;;;;;;0.10;0.10;;;23.20;65.20;;;;;;5024339;28;20219;-85
2021/10/06 09:04:00;;;;;;;1.00;0.30;;;23.60;64.70;;;;;;5018518;28;20258;-85
2021/10/06 09:06:42;;;;;;;0.20;0.20;;;23.60;63.60;;;;;;5021704;28;20216;-84
2021/10/06 09:09:12;;;;;;;0.83;0.23;;;23.60;63.90;;;;;;5020148;28;20612;-85
2021/10/06 09:11:39;;;;;;;0.00;0.00;;;24.00;63.50;;;;;;5025601;28;20223;-85
2021/10/06 09:14:07;;;;;;;0.10;0.10;;;24.40;62.90;;;;;;5000775;28;20752;-86
2021/10/06 09:16:37;;;;;;;0.10;0.10;;;24.70;62.00;;;;;;4998947;28;20216;-85
2021/10/06 09:19:06;;;;;;;0.20;0.20;;;25.00;61.70;;;;;;4999676;28;20223;-85
2021/10/06 09:21:54;;;;;;;0.47;0.47;;;25.40;60.20;;;;;;5002282;28;20221;-86
2021/10/06 09:24:23;;;;;;;1.13;0.30;;;25.50;58.80;;;;;;4992726;28;20231;-86
2021/10/06 09:27:04;;;;;;;0.27;0.27;;;25.50;59.00;;;;;;4990640;28;20226;-85
2021/10/06 09:29:45;;;;;;;0.60;0.60;;;25.60;58.90;;;;;;5024542;28;20208;-86
2021/10/06 09:32:34;;;;;;;0.03;0.03;;;25.70;57.90;;;;;;5024325;28;20227;-85
2021/10/06 09:35:01;;;;;;;0.10;0.10;;;25.60;57.50;;;;;;5019827;28;20242;-86
2021/10/06 09:37:29;;;;;;;0.10;0.10;;;25.60;57.20;;;;;;5035555;28;20321;-86
2021/10/06 09:39:57;;;;;;;0.20;0.20;;;25.60;57.30;;;;;;5017586;28;20223;-86
2021/10/06 09:42:24;;;;;;;0.10;0.10;;;25.60;57.70;;;;;;5020155;28;20224;-86
2021/10/06 09:44:58;;;;;;;1.23;0.90;;;25.80;57.60;;;;;;5010714;28;20232;-86
2021/10/06 09:47:25;;;;;;;0.10;0.10;;;25.90;56.40;;;;;;4988210;28;20259;-85
2021/10/06 09:49:57;;;;;;;0.10;0.10;;;26.00;56.40;;;;;;5001337;28;20562;-86
2021/10/06 09:52:30;;;;;;;0.10;0.10;;;26.00;55.20;;;;;;4999587;28;20295;-86
2021/10/06 09:55:06;;;;;;;0.33;0.33;;;26.00;54.70;;;;;;4989813;28;20231;-85
2021/10/06 09:57:38;;;;;;;0.10;0.10;;;26.00;54.70;;;;;;4998778;28;20247;-86
2021/10/06 10:00:14;;;;;;;0.10;0.10;;;25.90;54.70;;;;;;5020409;28;20226;-86
2021/10/06 10:02:42;;;;;;;0.40;0.30;;;26.00;55.20;;;;;;5019208;28;20630;-86
2021/10/06 10:05:10;;;;;;;0.40;0.40;;;26.10;55.00;;;;;;5018656;28;20235;-86
2021/10/06 10:07:38;;;;;;;0.27;0.23;;;26.20;55.10;;;;;;5019712;28;20218;-85
2021/10/06 10:10:08;;;;;;;0.10;0.10;;;26.40;55.20;;;;;;5020103;28;20227;-86
2021/10/06 10:12:40;;;;;;;0.10;0.10;;;26.70;54.90;;;;;;5018443;28;20222;-86
2021/10/06 10:15:08;;;;;;;0.17;0.17;;;26.90;53.50;;;;;;5015077;28;20232;-87
2021/10/06 10:17:35;;;;;;;0.33;0.33;;;26.90;50.70;;;;;;4999457;28;20621;-85
2021/10/06 10:20:11;;;;;;;0.37;0.37;;;26.70;51.30;;;;;;4999285;28;20208;-86
2021/10/06 10:22:49;;;;;;;0.20;0.20;;;26.60;51.70;;;;;;4992516;28;20295;-86
2021/10/06 10:25:29;;;;;;;0.40;0.40;;;26.30;51.20;;;;;;5000058;28;20212;-87
2021/10/06 10:28:14;;;;;;;0.20;0.20;;;25.90;52.80;;;;;;4999737;28;20220;-86
2021/10/06 10:30:53;;;;;;;0.13;0.13;;;25.60;51.40;;;;;;4999446;28;20247;-86
2021/10/06 10:33:38;;;;;;;0.10;0.10;;;25.40;51.30;;;;;;5015203;28;20239;-86
2021/10/06 10:36:25;;;;;;;0.93;0.47;;;25.20;51.20;;;;;;5014803;28;20223;-86
2021/10/06 10:38:52;;;;;;;0.50;0.20;;;25.10;51.50;;;;;;4992209;28;20209;-85
2021/10/06 10:41:41;;;;;;;0.60;0.50;;;25.50;50.50;;;;;;4979117;28;20220;-83
2021/10/06 10:44:09;;;;;;;0.40;0.40;;;26.00;49.70;;;;;;5008614;28;20585;-86
2021/10/06 10:46:59;;;;;;;0.00;0.00;;;26.20;49.60;;;;;;4983518;28;20213;-84
2021/10/06 10:49:41;;;;;;;0.50;0.50;;;26.20;49.80;;;;;;4996842;28;20220;-83
2021/10/06 10:52:08;;;;;;;0.00;0.00;;;26.20;50.20;;;;;;4993931;28;20305;-83
2021/10/06 10:54:40;;;;;;;0.10;0.10;;;26.20;50.40;;;;;;4990189;28;20230;-83
2021/10/06 10:57:25;;;;;;;0.00;0.00;;;26.30;49.80;;;;;;4991103;28;20258;-82
2021/10/06 10:59:56;;;;;;;0.00;0.00;;;26.50;49.90;;;;;;4979391;28;20228;-83
2021/10/06 11:02:32;;;;;;;0.40;0.40;;;26.60;50.00;;;;;;4989962;28;20247;-86
2021/10/06 11:05:01;;;;;;;0.00;0.00;;;26.80;50.40;;;;;;4989009;28;20220;-86
2021/10/06 11:07:28;;;;;;;0.20;0.20;;;26.70;51.20;;;;;;5001340;28;20208;-87
2021/10/06 11:10:15;;;;;;;0.10;0.10;;;26.50;51.70;;;;;;5000920;28;20242;-87
2021/10/06 11:12:53;;;;;;;0.30;0.30;;;26.20;52.90;;;;;;4981014;28;20201;-86
2021/10/06 11:15:20;;;;;;;3.00;1.80;;;26.10;55.40;;;;;;4996094;28;20219;-87
2021/10/06 11:18:13;;;;;;;0.10;0.10;;;26.20;56.60;;;;;;5008703;28;20220;-87
2021/10/06 11:20:45;;;;;;;0.50;0.50;;;26.10;56.80;;;;;;5008247;28;20227;-87
2021/10/06 11:23:56;;;;;;;0.10;0.10;;;26.00;56.80;;;;;;5000406;28;20219;-87
2021/10/06 11:26:30;;;;;;;2.10;0.97;;;25.70;56.70;;;;;;4995313;28;20575;-87
2021/10/06 11:28:59;;;;;;;0.20;0.20;;;25.20;57.00;;;;;;4986706;28;20607;-87
2021/10/06 11:31:29;;;;;;;1.23;0.57;;;25.00;56.80;;;;;;4987387;28;20284;-86
2021/10/06 11:33:59;;;;;;;0.53;0.50;;;24.80;57.30;;;;;;5001595;28;20545;-85
2021/10/06 11:36:29;;;;;;;0.20;0.20;;;24.90;57.90;;;;;;4984888;28;20550;-87
2021/10/06 11:39:08;;;;;;;0.10;0.10;;;25.20;58.10;;;;;;4981107;28;20213;-86
2021/10/06 11:41:40;;;;;;;0.83;0.43;;;25.70;57.50;;;;;;4985404;28;20220;-85
2021/10/06 11:44:07;;;;;;;0.80;0.80;;;26.20;56.60;;;;;;4984251;28;20233;-86
2021/10/06 11:46:35;;;;;;;1.20;0.90;;;26.60;55.30;;;;;;4987720;28;20232;-87
2021/10/06 11:49:08;;;;;;;0.53;0.53;;;26.70;55.30;;;;;;4981558;28;20209;-87
2021/10/06 11:51:46;;;;;;;0.40;0.40;;;26.60;55.70;;;;;;4999848;28;20215;-87
2021/10/06 11:54:18;;;;;;;0.10;0.10;;;26.60;55.10;;;;;;4984613;28;20629;-87
2021/10/06 11:56:50;;;;;;;0.20;0.17;;;26.80;54.80;;;;;;4994851;28;20216;-87
2021/10/06 11:59:20;;;;;;;0.83;0.70;;;27.00;54.40;;;;;;4983617;28;20225;-88
2021/10/06 12:01:55;;;;;;;0.10;0.10;;;27.30;54.00;;;;;;4983060;28;20681;-87
2021/10/06 12:04:32;;;;;;;0.30;0.30;;;27.40;53.20;;;;;;4991997;28;20227;-87
2021/10/06 12:07:01;;;;;;;0.40;0.30;;;27.50;52.70;;;;;;4996680;28;20227;-85
2021/10/06 12:09:39;;;;;;;0.33;0.33;;;27.50;52.00;;;;;;4996579;28;20225;-87
2021/10/06 12:12:18;;;;;;;0.30;0.30;;;27.50;51.50;;;;;;5000347;28;20213;-87
2021/10/06 12:14:51;;;;;;;0.20;0.20;;;27.40;51.40;;;;;;4996668;28;20285;-86
2021/10/06 12:17:22;;;;;;;1.40;0.87;;;27.30;51.40;;;;;;4990875;28;20225;-88
2021/10/06 12:20:03;;;;;;;0.10;0.10;;;27.30;51.20;;;;;;4979165;28;20227;-87
2021/10/06 12:22:42;;;;;;;0.07;0.07;;;27.20;51.50;;;;;;4978962;28;20220;-87
2021/10/06 12:25:17;;;;;;;0.10;0.10;;;26.80;51.50;;;;;;4987457;28;20239;-87
2021/10/06 12:28:06;;;;;;;0.10;0.10;;;26.40;53.10;;;;;;4992858;28;20637;-86
2021/10/06 12:30:57;;;;;;;0.30;0.30;;;26.00;54.40;;;;;;4990480;28;20625;-86
2021/10/06 12:33:27;;;;;;;0.00;0.00;;;25.60;56.00;;;;;;4980158;28;20618;-86
2021/10/06 12:35:56;;;;;;;0.10;0.10;;;25.40;57.20;;;;;;4979115;28;20297;-87
2021/10/06 12:38:40;;;;;;;0.20;0.20;;;25.20;58.80;;;;;;4983059;28;20235;-86
2021/10/06 12:41:14;;;;;;;1.30;0.27;;;25.00;59.70;;;;;;4994845;28;20653;-87
2021/10/06 12:43:43;;;;;;;0.83;0.83;;;24.90;60.00;;;;;;4998811;28;20213;-87
2021/10/06 12:46:15;;;;;;;0.10;0.10;;;24.60;59.00;;;;;;5002882;28;20225;-87
2021/10/06 12:48:52;;;;;;;0.10;0.10;;;24.20;59.30;;;;;;4991858;28;20212;-85
2021/10/06 12:51:27;;;;;;;0.10;0.10;;;23.80;59.60;;;;;;4983003;28;20204;-85
2021/10/06 12:54:06;;;;;;;0.20;0.20;;;23.40;60.50;;;;;;4989974;28;20655;-86
2021/10/06 12:56:59;;;;;;;0.63;0.63;;;23.20;61.50;;;;;;4995048;28;20247;-86
2021/10/06 12:59:37;;;;;;;0.10;0.10;;;22.90;62.20;;;;;;4988423;28;20216;-88
2021/10/06 13:02:12;;;;;;;3.30;1.83;;;22.60;63.00;;;;;;4979099;28;20223;-87